sensor_id;sensor_type;location;lat;lon;timestamp;temperature;humidity
38241;DHT22;24037;49.536;8.500;2022-12-13T00:00:55;-7.30;15.40
38241;DHT22;24037;49.536;8.500;2022-12-13T00:03:21;-7.30;17.50
38241;DHT22;24037;49.536;8.500;2022-12-13T00:05:47;-7.30;19.10
38241;DHT22;24037;49.536;8.500;2022-12-13T00:08:13;-7.30;19.60
38241;DHT22;24037;49.536;8.500;2022-12-13T00:10:39;-7.30;19.60
38241;DHT22;24037;49.536;8.500;2022-12-13T00:13:05;-7.30;20.10
38241;DHT22;24037;49.536;8.500;2022-12-13T00:15:31;-7.40;20.70
38241;DHT22;24037;49.536;8.500;2022-12-13T00:17:58;-7.40;20.60
38241;DHT22;24037;49.536;8.500;2022-12-13T00:20:24;-7.40;19.90
38241;DHT22;24037;49.536;8.500;2022-12-13T00:22:53;-7.50;19.80
38241;DHT22;24037;49.536;8.500;2022-12-13T00:25:19;-7.50;19.60
38241;DHT22;24037;49.536;8.500;2022-12-13T00:27:46;-7.50;20.30
38241;DHT22;24037;49.536;8.500;2022-12-13T00:30:12;-7.50;20.30
38241;DHT22;24037;49.536;8.500;2022-12-13T00:32:38;-7.50;21.20
38241;DHT22;24037;49.536;8.500;2022-12-13T00:35:05;-7.50;22.00
38241;DHT22;24037;49.536;8.500;2022-12-13T00:37:31;-7.40;23.60
38241;DHT22;24037;49.536;8.500;2022-12-13T00:39:57;-7.40;24.50
38241;DHT22;24037;49.536;8.500;2022-12-13T00:42:23;-7.50;24.60
38241;DHT22;24037;49.536;8.500;2022-12-13T00:44:49;-7.50;26.50
38241;DHT22;24037;49.536;8.500;2022-12-13T00:47:16;-7.40;29.70
38241;DHT22;24037;49.536;8.500;2022-12-13T00:49:44;-7.40;31.20
38241;DHT22;24037;49.536;8.500;2022-12-13T00:52:10;-7.40;31.80
38241;DHT22;24037;49.536;8.500;2022-12-13T00:54:36;-7.40;31.60
38241;DHT22;24037;49.536;8.500;2022-12-13T00:57:02;-7.40;32.30
38241;DHT22;24037;49.536;8.500;2022-12-13T00:59:28;-7.40;32.70
38241;DHT22;24037;49.536;8.500;2022-12-13T01:01:54;-7.40;32.20
38241;DHT22;24037;49.536;8.500;2022-12-13T01:04:20;-7.30;32.40
38241;DHT22;24037;49.536;8.500;2022-12-13T01:06:47;-7.40;32.20
38241;DHT22;24037;49.536;8.500;2022-12-13T01:09:21;-7.40;29.60
38241;DHT22;24037;49.536;8.500;2022-12-13T01:11:49;-7.40;29.30
38241;DHT22;24037;49.536;8.500;2022-12-13T01:14:16;-7.40;29.90
38241;DHT22;24037;49.536;8.500;2022-12-13T01:16:43;-7.40;27.70
38241;DHT22;24037;49.536;8.500;2022-12-13T01:19:09;-7.30;27.70
38241;DHT22;24037;49.536;8.500;2022-12-13T01:21:35;-7.40;27.50
38241;DHT22;24037;49.536;8.500;2022-12-13T01:24:05;-7.40;25.70
38241;DHT22;24037;49.536;8.500;2022-12-13T01:26:32;-7.40;26.90
38241;DHT22;24037;49.536;8.500;2022-12-13T01:28:58;-7.40;27.60
38241;DHT22;24037;49.536;8.500;2022-12-13T01:31:25;-7.40;26.90
38241;DHT22;24037;49.536;8.500;2022-12-13T01:33:51;-7.40;26.70
38241;DHT22;24037;49.536;8.500;2022-12-13T01:36:20;-7.40;24.90
38241;DHT22;24037;49.536;8.500;2022-12-13T01:38:46;-7.50;24.50
38241;DHT22;24037;49.536;8.500;2022-12-13T01:41:18;-7.50;24.30
38241;DHT22;24037;49.536;8.500;2022-12-13T01:43:53;-7.50;23.30
38241;DHT22;24037;49.536;8.500;2022-12-13T01:46:20;-7.50;22.50
38241;DHT22;24037;49.536;8.500;2022-12-13T01:51:58;-7.60;21.40
38241;DHT22;24037;49.536;8.500;2022-12-13T01:54:31;-7.60;22.20
38241;DHT22;24037;49.536;8.500;2022-12-13T01:56:59;-7.60;23.00
38241;DHT22;24037;49.536;8.500;2022-12-13T01:59:26;-7.70;22.90
38241;DHT22;24037;49.536;8.500;2022-12-13T02:01:53;-7.60;23.90
38241;DHT22;24037;49.536;8.500;2022-12-13T02:04:27;-7.70;24.50
38241;DHT22;24037;49.536;8.500;2022-12-13T02:06:56;-7.70;24.50
38241;DHT22;24037;49.536;8.500;2022-12-13T02:09:24;-7.70;24.40
38241;DHT22;24037;49.536;8.500;2022-12-13T02:11:51;-7.70;25.10
38241;DHT22;24037;49.536;8.500;2022-12-13T02:14:19;-7.70;26.50
38241;DHT22;24037;49.536;8.500;2022-12-13T02:17:00;-7.70;26.90
38241;DHT22;24037;49.536;8.500;2022-12-13T02:22:51;-7.80;27.50
38241;DHT22;24037;49.536;8.500;2022-12-13T02:28:40;-7.80;28.20
38241;DHT22;24037;49.536;8.500;2022-12-13T02:31:11;-7.90;27.70
38241;DHT22;24037;49.536;8.500;2022-12-13T02:34:20;-7.90;27.50
38241;DHT22;24037;49.536;8.500;2022-12-13T02:36:58;-7.90;28.20
38241;DHT22;24037;49.536;8.500;2022-12-13T02:39:34;-7.90;27.30
38241;DHT22;24037;49.536;8.500;2022-12-13T02:42:06;-7.80;29.20
38241;DHT22;24037;49.536;8.500;2022-12-13T02:44:50;-7.80;29.00
38241;DHT22;24037;49.536;8.500;2022-12-13T02:47:21;-7.80;28.70
38241;DHT22;24037;49.536;8.500;2022-12-13T02:49:57;-7.80;27.90
38241;DHT22;24037;49.536;8.500;2022-12-13T02:52:26;-7.80;26.40
38241;DHT22;24037;49.536;8.500;2022-12-13T02:54:53;-7.80;25.40
38241;DHT22;24037;49.536;8.500;2022-12-13T02:57:39;-7.80;23.50
38241;DHT22;24037;49.536;8.500;2022-12-13T03:00:12;-7.80;22.40
38241;DHT22;24037;49.536;8.500;2022-12-13T03:06:16;-7.90;20.60
38241;DHT22;24037;49.536;8.500;2022-12-13T03:17:56;-8.00;17.50
38241;DHT22;24037;49.536;8.500;2022-12-13T03:20:27;-7.90;18.70
38241;DHT22;24037;49.536;8.500;2022-12-13T03:22:55;-7.90;19.30
38241;DHT22;24037;49.536;8.500;2022-12-13T03:25:25;-7.90;18.10
38241;DHT22;24037;49.536;8.500;2022-12-13T03:27:52;-7.90;16.70
38241;DHT22;24037;49.536;8.500;2022-12-13T03:30:18;-7.90;15.50
38241;DHT22;24037;49.536;8.500;2022-12-13T03:32:45;-8.00;15.00
38241;DHT22;24037;49.536;8.500;2022-12-13T03:35:11;-8.10;13.40
38241;DHT22;24037;49.536;8.500;2022-12-13T03:37:37;-8.10;12.50
38241;DHT22;24037;49.536;8.500;2022-12-13T03:40:03;-8.10;13.00
38241;DHT22;24037;49.536;8.500;2022-12-13T03:42:30;-8.20;12.60
38241;DHT22;24037;49.536;8.500;2022-12-13T03:44:56;-8.20;11.50
38241;DHT22;24037;49.536;8.500;2022-12-13T03:47:22;-8.30;10.80
38241;DHT22;24037;49.536;8.500;2022-12-13T03:49:49;-8.40;9.30
38241;DHT22;24037;49.536;8.500;2022-12-13T03:52:15;-8.40;9.70
38241;DHT22;24037;49.536;8.500;2022-12-13T03:54:41;-8.40;9.70
38241;DHT22;24037;49.536;8.500;2022-12-13T03:57:07;-8.30;11.60
38241;DHT22;24037;49.536;8.500;2022-12-13T03:59:33;-8.20;14.10
38241;DHT22;24037;49.536;8.500;2022-12-13T04:01:59;-8.20;14.60
38241;DHT22;24037;49.536;8.500;2022-12-13T04:04:25;-8.20;13.80
38241;DHT22;24037;49.536;8.500;2022-12-13T04:06:51;-8.30;13.10
38241;DHT22;24037;49.536;8.500;2022-12-13T04:09:18;-8.30;12.70
38241;DHT22;24037;49.536;8.500;2022-12-13T04:11:44;-8.40;12.30
38241;DHT22;24037;49.536;8.500;2022-12-13T04:14:28;-8.40;11.30
38241;DHT22;24037;49.536;8.500;2022-12-13T04:16:54;-8.40;11.30
38241;DHT22;24037;49.536;8.500;2022-12-13T04:19:21;-8.50;9.70
38241;DHT22;24037;49.536;8.500;2022-12-13T04:21:47;-8.60;9.10
38241;DHT22;24037;49.536;8.500;2022-12-13T04:24:13;-8.60;8.80
38241;DHT22;24037;49.536;8.500;2022-12-13T04:26:39;-8.70;9.10
38241;DHT22;24037;49.536;8.500;2022-12-13T04:29:05;-8.70;9.30
38241;DHT22;24037;49.536;8.500;2022-12-13T04:31:31;-8.60;11.30
38241;DHT22;24037;49.536;8.500;2022-12-13T04:33:58;-8.60;12.10
38241;DHT22;24037;49.536;8.500;2022-12-13T04:36:24;-8.50;12.70
38241;DHT22;24037;49.536;8.500;2022-12-13T04:38:50;-8.50;12.20
38241;DHT22;24037;49.536;8.500;2022-12-13T04:41:17;-8.50;12.80
38241;DHT22;24037;49.536;8.500;2022-12-13T04:43:50;-8.50;13.80
38241;DHT22;24037;49.536;8.500;2022-12-13T04:46:20;-8.50;13.40
38241;DHT22;24037;49.536;8.500;2022-12-13T04:48:47;-8.50;12.20
38241;DHT22;24037;49.536;8.500;2022-12-13T04:51:14;-8.50;12.90
38241;DHT22;24037;49.536;8.500;2022-12-13T04:53:41;-8.50;11.80
38241;DHT22;24037;49.536;8.500;2022-12-13T04:56:07;-8.50;10.50
38241;DHT22;24037;49.536;8.500;2022-12-13T04:58:33;-8.60;9.60
38241;DHT22;24037;49.536;8.500;2022-12-13T05:00:59;-8.70;7.90
38241;DHT22;24037;49.536;8.500;2022-12-13T05:03:25;-8.70;6.50
38241;DHT22;24037;49.536;8.500;2022-12-13T05:05:52;-8.70;6.90
38241;DHT22;24037;49.536;8.500;2022-12-13T05:08:19;-8.60;9.80
38241;DHT22;24037;49.536;8.500;2022-12-13T05:10:45;-8.60;10.90
38241;DHT22;24037;49.536;8.500;2022-12-13T05:13:11;-8.70;9.70
38241;DHT22;24037;49.536;8.500;2022-12-13T05:15:37;-8.80;7.90
38241;DHT22;24037;49.536;8.500;2022-12-13T05:18:05;-8.80;8.20
38241;DHT22;24037;49.536;8.500;2022-12-13T05:20:34;-8.80;9.00
38241;DHT22;24037;49.536;8.500;2022-12-13T05:23:00;-8.70;10.30
38241;DHT22;24037;49.536;8.500;2022-12-13T05:25:27;-8.70;10.90
38241;DHT22;24037;49.536;8.500;2022-12-13T05:27:53;-8.70;10.60
38241;DHT22;24037;49.536;8.500;2022-12-13T05:30:20;-8.70;13.20
38241;DHT22;24037;49.536;8.500;2022-12-13T05:32:46;-8.60;14.90
38241;DHT22;24037;49.536;8.500;2022-12-13T05:35:14;-8.70;14.00
38241;DHT22;24037;49.536;8.500;2022-12-13T05:37:40;-8.70;13.60
38241;DHT22;24037;49.536;8.500;2022-12-13T05:40:07;-8.60;14.50
38241;DHT22;24037;49.536;8.500;2022-12-13T05:42:36;-8.70;13.30
38241;DHT22;24037;49.536;8.500;2022-12-13T05:45:05;-8.70;12.80
38241;DHT22;24037;49.536;8.500;2022-12-13T05:47:32;-8.70;13.20
38241;DHT22;24037;49.536;8.500;2022-12-13T05:49:58;-8.70;14.60
38241;DHT22;24037;49.536;8.500;2022-12-13T05:52:24;-8.60;16.60
38241;DHT22;24037;49.536;8.500;2022-12-13T05:54:54;-8.50;20.20
38241;DHT22;24037;49.536;8.500;2022-12-13T05:57:22;-8.40;21.90
38241;DHT22;24037;49.536;8.500;2022-12-13T05:59:48;-8.30;24.10
38241;DHT22;24037;49.536;8.500;2022-12-13T06:02:15;-8.20;25.90
38241;DHT22;24037;49.536;8.500;2022-12-13T06:04:43;-8.20;26.80
38241;DHT22;24037;49.536;8.500;2022-12-13T06:07:10;-8.10;31.00
38241;DHT22;24037;49.536;8.500;2022-12-13T06:09:36;-7.90;33.60
38241;DHT22;24037;49.536;8.500;2022-12-13T06:12:03;-7.90;33.00
38241;DHT22;24037;49.536;8.500;2022-12-13T06:14:29;-7.90;31.60
38241;DHT22;24037;49.536;8.500;2022-12-13T06:16:55;-7.90;30.10
38241;DHT22;24037;49.536;8.500;2022-12-13T06:19:22;-7.80;29.90
38241;DHT22;24037;49.536;8.500;2022-12-13T06:21:52;-7.80;29.40
38241;DHT22;24037;49.536;8.500;2022-12-13T06:24:21;-7.70;28.00
38241;DHT22;24037;49.536;8.500;2022-12-13T06:26:50;-7.80;25.90
38241;DHT22;24037;49.536;8.500;2022-12-13T06:29:19;-7.70;24.80
38241;DHT22;24037;49.536;8.500;2022-12-13T06:31:46;-7.70;24.70
38241;DHT22;24037;49.536;8.500;2022-12-13T06:34:13;-7.80;22.50
38241;DHT22;24037;49.536;8.500;2022-12-13T06:36:39;-7.80;22.70
38241;DHT22;24037;49.536;8.500;2022-12-13T06:39:06;-7.70;23.00
38241;DHT22;24037;49.536;8.500;2022-12-13T06:41:32;-7.70;24.00
38241;DHT22;24037;49.536;8.500;2022-12-13T06:43:59;-7.60;25.50
38241;DHT22;24037;49.536;8.500;2022-12-13T06:46:25;-7.70;24.40
38241;DHT22;24037;49.536;8.500;2022-12-13T06:48:56;-7.70;24.50
38241;DHT22;24037;49.536;8.500;2022-12-13T06:51:22;-7.60;25.20
38241;DHT22;24037;49.536;8.500;2022-12-13T06:53:49;-7.50;25.70
38241;DHT22;24037;49.536;8.500;2022-12-13T06:56:15;-7.50;24.60
38241;DHT22;24037;49.536;8.500;2022-12-13T06:58:41;-7.50;24.30
38241;DHT22;24037;49.536;8.500;2022-12-13T07:01:13;-7.50;23.20
38241;DHT22;24037;49.536;8.500;2022-12-13T07:03:40;-7.50;22.20
38241;DHT22;24037;49.536;8.500;2022-12-13T07:06:10;-7.50;21.20
38241;DHT22;24037;49.536;8.500;2022-12-13T07:08:36;-7.60;21.50
38241;DHT22;24037;49.536;8.500;2022-12-13T07:11:03;-7.50;20.70
38241;DHT22;24037;49.536;8.500;2022-12-13T07:13:29;-7.50;21.20
38241;DHT22;24037;49.536;8.500;2022-12-13T07:15:56;-7.50;21.60
38241;DHT22;24037;49.536;8.500;2022-12-13T07:18:22;-7.40;20.90
38241;DHT22;24037;49.536;8.500;2022-12-13T07:20:48;-7.40;20.10
38241;DHT22;24037;49.536;8.500;2022-12-13T07:23:14;-7.40;20.10
38241;DHT22;24037;49.536;8.500;2022-12-13T07:25:50;-7.40;20.50
38241;DHT22;24037;49.536;8.500;2022-12-13T07:28:19;-7.30;20.00
38241;DHT22;24037;49.536;8.500;2022-12-13T07:30:45;-7.30;18.90
38241;DHT22;24037;49.536;8.500;2022-12-13T07:33:12;-7.30;18.00
38241;DHT22;24037;49.536;8.500;2022-12-13T07:35:39;-7.40;17.50
38241;DHT22;24037;49.536;8.500;2022-12-13T07:38:07;-7.30;18.00
38241;DHT22;24037;49.536;8.500;2022-12-13T07:40:35;-7.30;17.30
38241;DHT22;24037;49.536;8.500;2022-12-13T07:43:01;-7.30;16.70
38241;DHT22;24037;49.536;8.500;2022-12-13T07:45:27;-7.30;16.50
38241;DHT22;24037;49.536;8.500;2022-12-13T07:47:54;-7.30;16.10
38241;DHT22;24037;49.536;8.500;2022-12-13T07:50:20;-7.20;16.90
38241;DHT22;24037;49.536;8.500;2022-12-13T07:52:47;-7.10;18.20
38241;DHT22;24037;49.536;8.500;2022-12-13T07:55:14;-7.10;17.10
38241;DHT22;24037;49.536;8.500;2022-12-13T07:57:40;-7.10;16.40
38241;DHT22;24037;49.536;8.500;2022-12-13T08:00:07;-7.10;15.70
38241;DHT22;24037;49.536;8.500;2022-12-13T08:02:39;-7.00;15.80
38241;DHT22;24037;49.536;8.500;2022-12-13T08:05:06;-7.00;15.60
38241;DHT22;24037;49.536;8.500;2022-12-13T08:07:32;-6.90;15.40
38241;DHT22;24037;49.536;8.500;2022-12-13T08:09:58;-6.80;15.00
38241;DHT22;24037;49.536;8.500;2022-12-13T08:12:25;-6.80;15.60
38241;DHT22;24037;49.536;8.500;2022-12-13T08:14:51;-6.70;16.00
38241;DHT22;24037;49.536;8.500;2022-12-13T08:17:17;-6.60;16.70
38241;DHT22;24037;49.536;8.500;2022-12-13T08:19:43;-6.50;16.60
38241;DHT22;24037;49.536;8.500;2022-12-13T08:22:13;-6.40;15.10
38241;DHT22;24037;49.536;8.500;2022-12-13T08:24:39;-6.40;13.50
38241;DHT22;24037;49.536;8.500;2022-12-13T08:27:05;-6.30;12.20
38241;DHT22;24037;49.536;8.500;2022-12-13T08:29:34;-6.40;11.10
38241;DHT22;24037;49.536;8.500;2022-12-13T08:32:06;-6.30;10.40
38241;DHT22;24037;49.536;8.500;2022-12-13T08:34:33;-6.30;9.70
38241;DHT22;24037;49.536;8.500;2022-12-13T08:36:59;-6.20;9.30
38241;DHT22;24037;49.536;8.500;2022-12-13T08:39:25;-6.10;8.40
38241;DHT22;24037;49.536;8.500;2022-12-13T08:41:52;-6.10;7.80
38241;DHT22;24037;49.536;8.500;2022-12-13T08:44:18;-6.10;7.00
38241;DHT22;24037;49.536;8.500;2022-12-13T08:46:44;-6.10;5.60
38241;DHT22;24037;49.536;8.500;2022-12-13T08:49:10;-6.00;5.20
38241;DHT22;24037;49.536;8.500;2022-12-13T08:51:37;-5.90;5.40
38241;DHT22;24037;49.536;8.500;2022-12-13T08:54:03;-5.90;4.80
38241;DHT22;24037;49.536;8.500;2022-12-13T08:56:29;-5.80;4.20
38241;DHT22;24037;49.536;8.500;2022-12-13T08:58:55;-5.80;3.20
38241;DHT22;24037;49.536;8.500;2022-12-13T09:01:21;-5.80;3.00
38241;DHT22;24037;49.536;8.500;2022-12-13T09:03:48;-5.70;2.60
38241;DHT22;24037;49.536;8.500;2022-12-13T09:06:15;-5.60;3.40
38241;DHT22;24037;49.536;8.500;2022-12-13T09:08:42;-5.60;2.60
38241;DHT22;24037;49.536;8.500;2022-12-13T09:11:10;-5.50;2.10
38241;DHT22;24037;49.536;8.500;2022-12-13T09:13:37;-5.50;1.00
38241;DHT22;24037;49.536;8.500;2022-12-13T09:16:05;-5.50;1.00
38241;DHT22;24037;49.536;8.500;2022-12-13T09:18:32;-5.40;1.00
38241;DHT22;24037;49.536;8.500;2022-12-13T09:20:58;-5.40;1.00
38241;DHT22;24037;49.536;8.500;2022-12-13T09:23:24;-5.30;1.00
38241;DHT22;24037;49.536;8.500;2022-12-13T09:25:57;-5.20;1.00
38241;DHT22;24037;49.536;8.500;2022-12-13T09:28:26;-5.20;1.00
38241;DHT22;24037;49.536;8.500;2022-12-13T09:30:52;-5.10;1.00
38241;DHT22;24037;49.536;8.500;2022-12-13T09:33:18;-5.00;1.00
38241;DHT22;24037;49.536;8.500;2022-12-13T09:35:45;-4.90;1.00
38241;DHT22;24037;49.536;8.500;2022-12-13T09:38:12;-4.90;1.00
38241;DHT22;24037;49.536;8.500;2022-12-13T09:40:38;-4.80;1.00
38241;DHT22;24037;49.536;8.500;2022-12-13T09:43:06;-4.70;1.00
38241;DHT22;24037;49.536;8.500;2022-12-13T09:45:33;-4.70;1.00
38241;DHT22;24037;49.536;8.500;2022-12-13T09:48:00;-4.60;1.00
38241;DHT22;24037;49.536;8.500;2022-12-13T09:50:34;-4.60;1.00
38241;DHT22;24037;49.536;8.500;2022-12-13T09:53:04;-4.50;1.00
38241;DHT22;24037;49.536;8.500;2022-12-13T09:55:43;-4.50;1.00
38241;DHT22;24037;49.536;8.500;2022-12-13T09:58:28;-4.40;1.00
38241;DHT22;24037;49.536;8.500;2022-12-13T10:00:56;-4.30;1.00
38241;DHT22;24037;49.536;8.500;2022-12-13T10:03:24;-4.20;1.00
38241;DHT22;24037;49.536;8.500;2022-12-13T10:05:57;-4.10;1.00
38241;DHT22;24037;49.536;8.500;2022-12-13T10:08:31;-4.00;1.00
38241;DHT22;24037;49.536;8.500;2022-12-13T10:11:00;-4.00;1.00
38241;DHT22;24037;49.536;8.500;2022-12-13T10:13:39;-3.90;1.00
38241;DHT22;24037;49.536;8.500;2022-12-13T10:16:17;-3.90;1.00
38241;DHT22;24037;49.536;8.500;2022-12-13T10:18:45;-3.70;1.00
38241;DHT22;24037;49.536;8.500;2022-12-13T10:21:21;-3.60;1.00
38241;DHT22;24037;49.536;8.500;2022-12-13T10:23:50;-3.60;1.00
38241;DHT22;24037;49.536;8.500;2022-12-13T10:26:17;-3.50;1.00
38241;DHT22;24037;49.536;8.500;2022-12-13T10:28:43;-3.40;1.00
38241;DHT22;24037;49.536;8.500;2022-12-13T10:31:19;-3.40;1.00
38241;DHT22;24037;49.536;8.500;2022-12-13T10:33:53;-3.20;1.00
38241;DHT22;24037;49.536;8.500;2022-12-13T10:36:34;-3.10;1.00
38241;DHT22;24037;49.536;8.500;2022-12-13T10:39:03;-3.00;1.00
38241;DHT22;24037;49.536;8.500;2022-12-13T10:41:36;-2.90;1.00
38241;DHT22;24037;49.536;8.500;2022-12-13T10:46:51;-2.70;1.00
38241;DHT22;24037;49.536;8.500;2022-12-13T10:49:22;-2.50;1.00
38241;DHT22;24037;49.536;8.500;2022-12-13T10:51:49;-2.40;1.00
38241;DHT22;24037;49.536;8.500;2022-12-13T10:54:25;-2.20;1.00
38241;DHT22;24037;49.536;8.500;2022-12-13T10:56:52;-2.20;1.00
38241;DHT22;24037;49.536;8.500;2022-12-13T10:59:26;-2.00;1.00
38241;DHT22;24037;49.536;8.500;2022-12-13T11:01:53;-1.90;1.00
38241;DHT22;24037;49.536;8.500;2022-12-13T11:04:25;-1.90;1.00
38241;DHT22;24037;49.536;8.500;2022-12-13T11:06:52;-1.80;1.00
38241;DHT22;24037;49.536;8.500;2022-12-13T11:09:28;-1.70;1.00
38241;DHT22;24037;49.536;8.500;2022-12-13T11:11:57;-1.60;1.00
38241;DHT22;24037;49.536;8.500;2022-12-13T11:14:33;-1.60;1.00
38241;DHT22;24037;49.536;8.500;2022-12-13T11:17:07;-1.50;1.00
38241;DHT22;24037;49.536;8.500;2022-12-13T11:19:39;-1.60;1.00
38241;DHT22;24037;49.536;8.500;2022-12-13T11:22:07;-1.40;1.00
38241;DHT22;24037;49.536;8.500;2022-12-13T11:24:39;-1.30;1.00
38241;DHT22;24037;49.536;8.500;2022-12-13T11:35:41;-1.00;1.00
38241;DHT22;24037;49.536;8.500;2022-12-13T11:41:16;-1.00;1.00
38241;DHT22;24037;49.536;8.500;2022-12-13T11:43:52;-0.90;1.00
38241;DHT22;24037;49.536;8.500;2022-12-13T11:46:34;-0.90;1.00
38241;DHT22;24037;49.536;8.500;2022-12-13T11:49:07;-0.90;1.00
38241;DHT22;24037;49.536;8.500;2022-12-13T11:52:00;-0.90;1.00
38241;DHT22;24037;49.536;8.500;2022-12-13T11:55:07;-0.90;1.00
38241;DHT22;24037;49.536;8.500;2022-12-13T11:57:34;-0.90;1.00
38241;DHT22;24037;49.536;8.500;2022-12-13T12:00:27;-0.80;1.00
38241;DHT22;24037;49.536;8.500;2022-12-13T12:02:54;-0.80;1.00
38241;DHT22;24037;49.536;8.500;2022-12-13T12:07:59;-0.70;1.00
38241;DHT22;24037;49.536;8.500;2022-12-13T12:13:54;-0.60;1.00
38241;DHT22;24037;49.536;8.500;2022-12-13T12:18:51;-0.80;1.00
38241;DHT22;24037;49.536;8.500;2022-12-13T12:24:08;-0.80;1.00
38241;DHT22;24037;49.536;8.500;2022-12-13T12:38:00;-0.90;1.00
38241;DHT22;24037;49.536;8.500;2022-12-13T12:43:30;-0.90;1.00
38241;DHT22;24037;49.536;8.500;2022-12-13T12:46:22;-0.90;1.00
38241;DHT22;24037;49.536;8.500;2022-12-13T12:54:58;-1.20;1.00
38241;DHT22;24037;49.536;8.500;2022-12-13T12:58:03;-1.20;1.00
38241;DHT22;24037;49.536;8.500;2022-12-13T13:00:42;-1.30;1.00
38241;DHT22;24037;49.536;8.500;2022-12-13T13:03:17;-1.30;1.00
38241;DHT22;24037;49.536;8.500;2022-12-13T13:05:53;-1.30;1.00
38241;DHT22;24037;49.536;8.500;2022-12-13T13:08:25;-1.30;1.00
38241;DHT22;24037;49.536;8.500;2022-12-13T13:10:54;-1.30;1.00
38241;DHT22;24037;49.536;8.500;2022-12-13T13:18:58;-1.30;1.00
38241;DHT22;24037;49.536;8.500;2022-12-13T13:21:33;-1.30;1.00
38241;DHT22;24037;49.536;8.500;2022-12-13T13:26:45;-1.50;1.00
38241;DHT22;24037;49.536;8.500;2022-12-13T13:34:41;-1.40;1.00
38241;DHT22;24037;49.536;8.500;2022-12-13T13:39:56;-1.50;1.00
38241;DHT22;24037;49.536;8.500;2022-12-13T13:42:29;-1.50;1.00
38241;DHT22;24037;49.536;8.500;2022-12-13T13:45:21;-1.50;1.00
38241;DHT22;24037;49.536;8.500;2022-12-13T13:51:20;-1.50;1.00
38241;DHT22;24037;49.536;8.500;2022-12-13T14:00:04;-1.50;1.00
38241;DHT22;24037;49.536;8.500;2022-12-13T14:02:57;-1.60;1.00
38241;DHT22;24037;49.536;8.500;2022-12-13T14:31:40;-2.40;1.00
38241;DHT22;24037;49.536;8.500;2022-12-13T14:34:37;-2.60;1.00
38241;DHT22;24037;49.536;8.500;2022-12-13T14:37:20;-2.50;1.00
38241;DHT22;24037;49.536;8.500;2022-12-13T14:39:47;-2.60;1.00
38241;DHT22;24037;49.536;8.500;2022-12-13T14:42:25;-2.60;1.00
38241;DHT22;24037;49.536;8.500;2022-12-13T14:44:54;-2.60;1.00
38241;DHT22;24037;49.536;8.500;2022-12-13T14:47:21;-2.70;1.00
38241;DHT22;24037;49.536;8.500;2022-12-13T14:49:54;-2.70;1.00
38241;DHT22;24037;49.536;8.500;2022-12-13T14:52:26;-2.70;1.00
38241;DHT22;24037;49.536;8.500;2022-12-13T14:54:59;-2.70;1.00
38241;DHT22;24037;49.536;8.500;2022-12-13T14:57:27;-2.80;1.00
38241;DHT22;24037;49.536;8.500;2022-12-13T14:59:55;-2.80;1.00
38241;DHT22;24037;49.536;8.500;2022-12-13T15:02:24;-2.90;1.00
38241;DHT22;24037;49.536;8.500;2022-12-13T15:04:53;-2.80;1.00
38241;DHT22;24037;49.536;8.500;2022-12-13T15:07:22;-2.80;1.00
38241;DHT22;24037;49.536;8.500;2022-12-13T15:09:58;-2.80;1.00
38241;DHT22;24037;49.536;8.500;2022-12-13T15:12:25;-2.90;1.00
38241;DHT22;24037;49.536;8.500;2022-12-13T15:15:03;-2.90;1.00
38241;DHT22;24037;49.536;8.500;2022-12-13T15:17:36;-2.80;1.00
38241;DHT22;24037;49.536;8.500;2022-12-13T15:20:24;-2.80;1.00
38241;DHT22;24037;49.536;8.500;2022-12-13T15:22:58;-2.80;1.00
38241;DHT22;24037;49.536;8.500;2022-12-13T15:25:25;-2.80;1.00
38241;DHT22;24037;49.536;8.500;2022-12-13T15:27:53;-2.80;1.00
38241;DHT22;24037;49.536;8.500;2022-12-13T15:30:20;-2.80;1.00
38241;DHT22;24037;49.536;8.500;2022-12-13T15:33:06;-3.00;1.00
38241;DHT22;24037;49.536;8.500;2022-12-13T15:35:34;-3.10;1.00
38241;DHT22;24037;49.536;8.500;2022-12-13T15:38:12;-3.20;1.00
38241;DHT22;24037;49.536;8.500;2022-12-13T15:40:45;-3.20;1.00
38241;DHT22;24037;49.536;8.500;2022-12-13T15:43:17;-3.30;1.00
38241;DHT22;24037;49.536;8.500;2022-12-13T15:45:46;-3.40;1.00
38241;DHT22;24037;49.536;8.500;2022-12-13T15:48:22;-3.40;1.00
38241;DHT22;24037;49.536;8.500;2022-12-13T15:51:24;-3.50;1.00
38241;DHT22;24037;49.536;8.500;2022-12-13T15:54:05;-3.50;1.00
38241;DHT22;24037;49.536;8.500;2022-12-13T15:57:10;-3.60;1.00
38241;DHT22;24037;49.536;8.500;2022-12-13T15:59:41;-3.60;1.00
38241;DHT22;24037;49.536;8.500;2022-12-13T16:02:20;-3.70;1.00
38241;DHT22;24037;49.536;8.500;2022-12-13T16:04:47;-3.70;1.00
38241;DHT22;24037;49.536;8.500;2022-12-13T16:07:40;-3.80;1.00
38241;DHT22;24037;49.536;8.500;2022-12-13T16:10:07;-3.90;1.00
38241;DHT22;24037;49.536;8.500;2022-12-13T16:12:46;-3.90;1.00
38241;DHT22;24037;49.536;8.500;2022-12-13T16:15:25;-4.10;1.00
38241;DHT22;24037;49.536;8.500;2022-12-13T16:17:55;-4.10;1.00
38241;DHT22;24037;49.536;8.500;2022-12-13T16:20:29;-4.10;1.00
38241;DHT22;24037;49.536;8.500;2022-12-13T16:22:55;-4.10;1.00
38241;DHT22;24037;49.536;8.500;2022-12-13T16:25:22;-4.10;1.00
38241;DHT22;24037;49.536;8.500;2022-12-13T16:27:48;-4.10;1.00
38241;DHT22;24037;49.536;8.500;2022-12-13T16:30:27;-4.10;1.00
38241;DHT22;24037;49.536;8.500;2022-12-13T16:32:53;-4.00;1.00
38241;DHT22;24037;49.536;8.500;2022-12-13T16:35:20;-4.00;1.00
38241;DHT22;24037;49.536;8.500;2022-12-13T16:37:47;-4.00;1.00
38241;DHT22;24037;49.536;8.500;2022-12-13T16:40:21;-4.00;1.00
38241;DHT22;24037;49.536;8.500;2022-12-13T16:42:48;-4.00;1.00
38241;DHT22;24037;49.536;8.500;2022-12-13T16:45:15;-4.00;1.00
38241;DHT22;24037;49.536;8.500;2022-12-13T16:47:41;-4.00;1.00
38241;DHT22;24037;49.536;8.500;2022-12-13T16:50:15;-3.90;1.00
38241;DHT22;24037;49.536;8.500;2022-12-13T16:52:42;-4.00;1.00
38241;DHT22;24037;49.536;8.500;2022-12-13T16:55:08;-3.90;1.00
38241;DHT22;24037;49.536;8.500;2022-12-13T16:57:35;-3.90;1.00
38241;DHT22;24037;49.536;8.500;2022-12-13T17:00:01;-3.90;1.00
38241;DHT22;24037;49.536;8.500;2022-12-13T17:02:28;-3.90;1.00
38241;DHT22;24037;49.536;8.500;2022-12-13T17:04:54;-4.00;1.00
38241;DHT22;24037;49.536;8.500;2022-12-13T17:07:20;-4.00;1.00
38241;DHT22;24037;49.536;8.500;2022-12-13T17:09:46;-4.00;1.00
38241;DHT22;24037;49.536;8.500;2022-12-13T17:12:14;-4.00;1.00
38241;DHT22;24037;49.536;8.500;2022-12-13T17:14:40;-3.90;1.00
38241;DHT22;24037;49.536;8.500;2022-12-13T17:17:06;-4.00;1.00
38241;DHT22;24037;49.536;8.500;2022-12-13T17:19:32;-3.90;1.00
38241;DHT22;24037;49.536;8.500;2022-12-13T17:21:59;-3.80;1.00
38241;DHT22;24037;49.536;8.500;2022-12-13T17:24:25;-3.60;1.00
38241;DHT22;24037;49.536;8.500;2022-12-13T17:26:51;-3.60;1.00
38241;DHT22;24037;49.536;8.500;2022-12-13T17:29:24;-3.60;1.00
38241;DHT22;24037;49.536;8.500;2022-12-13T17:31:50;-3.60;1.00
38241;DHT22;24037;49.536;8.500;2022-12-13T17:34:18;-3.60;1.00
38241;DHT22;24037;49.536;8.500;2022-12-13T17:36:44;-3.70;1.00
38241;DHT22;24037;49.536;8.500;2022-12-13T17:39:10;-3.60;1.00
38241;DHT22;24037;49.536;8.500;2022-12-13T17:41:37;-3.50;1.00
38241;DHT22;24037;49.536;8.500;2022-12-13T17:44:05;-3.60;1.00
38241;DHT22;24037;49.536;8.500;2022-12-13T17:46:31;-3.60;1.00
38241;DHT22;24037;49.536;8.500;2022-12-13T17:48:59;-3.60;1.00
38241;DHT22;24037;49.536;8.500;2022-12-13T17:51:25;-3.60;1.00
38241;DHT22;24037;49.536;8.500;2022-12-13T17:53:51;-3.60;1.00
38241;DHT22;24037;49.536;8.500;2022-12-13T17:56:18;-3.40;1.00